Time;durP1;ratioP1;P1;durP2;ratioP2;P2;SDS_P1;SDS_P2;PMS_P1;PMS_P2;Temp;Humidity;BMP_temperature;BMP_pressure;BME280_temperature;BME280_humidity;BME280_pressure;Samples;Min_cycle;Max_cycle;Signal;HPM_P1;HPM_P2
2022/03/31 00:00:12;;;;;;;2.65;0.90;;;;;;;;;;5049515;28;20040;-49
2022/03/31 00:02:38;;;;;;;2.42;0.90;;;;;;;;;;5036709;28;20037;-48
2022/03/31 00:05:04;;;;;;;2.45;0.90;;;;;;;;;;5042210;28;20079;-48
2022/03/31 00:07:30;;;;;;;3.17;0.77;;;;;;;;;;5048996;28;20024;-50
2022/03/31 00:09:56;;;;;;;3.35;0.90;;;;;;;;;;5048999;28;20025;-49
2022/03/31 00:12:22;;;;;;;3.55;0.80;;;;;;;;;;5049178;28;20036;-50
2022/03/31 00:14:48;;;;;;;2.10;0.98;;;;;;;;;;5047506;28;20040;-47
2022/03/31 00:17:15;;;;;;;2.10;1.00;;;;;;;;;;5048454;28;20380;-53
2022/03/31 00:19:41;;;;;;;2.15;0.93;;;;;;;;;;5048910;28;20017;-49
2022/03/31 00:34:22;;;;;;;1.98;0.80;;;;;;;;;;5040738;28;20055;-51
2022/03/31 00:36:48;;;;;;;3.25;1.02;;;;;;;;;;5048311;28;20471;-52
2022/03/31 00:39:29;;;;;;;2.17;1.00;;;;;;;;;;5048719;28;20021;-52
2022/03/31 00:41:56;;;;;;;2.85;0.85;;;;;;;;;;5043181;28;20064;-53
2022/03/31 00:44:23;;;;;;;1.98;0.88;;;;;;;;;;5036855;28;20052;-52
2022/03/31 00:46:49;;;;;;;6.22;1.08;;;;;;;;;;5046821;28;20087;-51
2022/03/31 00:49:22;;;;;;;3.38;1.10;;;;;;;;;;5034829;28;20041;-49
2022/03/31 00:51:50;;;;;;;4.70;1.10;;;;;;;;;;5043129;28;20021;-51
2022/03/31 00:54:16;;;;;;;2.78;0.93;;;;;;;;;;5048083;28;20028;-48
2022/03/31 00:56:42;;;;;;;1.63;0.90;;;;;;;;;;5048235;28;20021;-51
2022/03/31 00:59:10;;;;;;;3.05;1.15;;;;;;;;;;5048544;28;20037;-50
2022/03/31 01:01:38;;;;;;;2.17;0.80;;;;;;;;;;5048477;28;20487;-52
2022/03/31 01:04:05;;;;;;;1.77;0.90;;;;;;;;;;5034468;28;20557;-48
2022/03/31 01:06:31;;;;;;;2.88;1.00;;;;;;;;;;5036235;28;20035;-51
2022/03/31 01:08:57;;;;;;;1.00;0.88;;;;;;;;;;5034093;28;20026;-53
2022/03/31 01:11:23;;;;;;;3.58;1.10;;;;;;;;;;5033568;28;20025;-49
2022/03/31 01:13:50;;;;;;;2.00;1.10;;;;;;;;;;5048239;28;20017;-51
2022/03/31 01:16:16;;;;;;;2.17;0.93;;;;;;;;;;5047626;28;20020;-50
2022/03/31 01:18:42;;;;;;;2.40;1.05;;;;;;;;;;5040928;28;20025;-52
2022/03/31 01:21:12;;;;;;;3.28;0.90;;;;;;;;;;5048466;28;20041;-52
2022/03/31 01:23:38;;;;;;;2.05;0.90;;;;;;;;;;5047758;28;20029;-52
2022/03/31 01:26:10;;;;;;;3.70;0.93;;;;;;;;;;5048005;28;20029;-51
2022/03/31 01:28:43;;;;;;;1.27;0.88;;;;;;;;;;5047245;28;20053;-51
2022/03/31 01:31:10;;;;;;;2.28;0.80;;;;;;;;;;5048370;28;20029;-50
2022/03/31 01:33:37;;;;;;;1.20;0.80;;;;;;;;;;5044606;28;20033;-51
2022/03/31 01:36:05;;;;;;;3.00;1.00;;;;;;;;;;5047470;28;20053;-52
2022/03/31 01:38:31;;;;;;;1.67;0.80;;;;;;;;;;5047772;28;20429;-52
2022/03/31 01:40:58;;;;;;;2.97;1.10;;;;;;;;;;5047598;28;20037;-53
2022/03/31 01:43:24;;;;;;;2.53;1.00;;;;;;;;;;5048020;28;20056;-52
2022/03/31 01:45:52;;;;;;;1.63;0.77;;;;;;;;;;5051565;28;20033;-52
2022/03/31 01:48:18;;;;;;;1.90;0.82;;;;;;;;;;5050677;28;20441;-52
2022/03/31 01:50:44;;;;;;;3.38;1.27;;;;;;;;;;5051832;28;20036;-48
2022/03/31 01:53:10;;;;;;;3.20;1.40;;;;;;;;;;5052156;28;20017;-51
2022/03/31 01:55:39;;;;;;;3.17;1.10;;;;;;;;;;5050745;28;20040;-53
2022/03/31 01:58:05;;;;;;;2.63;0.90;;;;;;;;;;5038841;28;20025;-49
2022/03/31 02:00:31;;;;;;;3.90;1.17;;;;;;;;;;5051593;28;20567;-48
2022/03/31 02:02:59;;;;;;;3.00;1.10;;;;;;;;;;5050467;28;20039;-53
2022/03/31 02:05:25;;;;;;;3.03;0.90;;;;;;;;;;5051655;28;20029;-51
2022/03/31 02:07:54;;;;;;;2.33;1.00;;;;;;;;;;5051384;28;20590;-51
2022/03/31 02:10:21;;;;;;;1.40;0.73;;;;;;;;;;5051512;28;20033;-48
2022/03/31 02:12:48;;;;;;;2.22;0.70;;;;;;;;;;5051698;28;20033;-49
2022/03/31 02:15:15;;;;;;;1.85;0.90;;;;;;;;;;5051236;28;20115;-49
2022/03/31 02:17:42;;;;;;;1.42;0.70;;;;;;;;;;5047131;28;20036;-52
2022/03/31 02:20:08;;;;;;;2.67;1.02;;;;;;;;;;5049351;28;20079;-53
2022/03/31 02:22:35;;;;;;;2.40;0.90;;;;;;;;;;5050634;28;20025;-52
2022/03/31 02:25:01;;;;;;;1.48;0.73;;;;;;;;;;5051061;28;20095;-51
2022/03/31 02:27:27;;;;;;;2.28;0.90;;;;;;;;;;5039242;28;20854;-48
2022/03/31 02:29:53;;;;;;;1.83;0.70;;;;;;;;;;5044717;28;20361;-47
2022/03/31 02:32:19;;;;;;;2.15;0.90;;;;;;;;;;5047208;28;20677;-50
2022/03/31 02:34:45;;;;;;;1.48;0.77;;;;;;;;;;5049339;28;20143;-51
2022/03/31 02:37:11;;;;;;;2.88;0.90;;;;;;;;;;5051395;28;20052;-50
2022/03/31 02:39:38;;;;;;;1.30;0.60;;;;;;;;;;5050845;28;20263;-51
2022/03/31 02:42:04;;;;;;;1.75;0.93;;;;;;;;;;5051436;28;20459;-50
2022/03/31 02:44:30;;;;;;;2.20;0.93;;;;;;;;;;5046139;28;20457;-47
2022/03/31 02:46:56;;;;;;;2.60;1.02;;;;;;;;;;5050650;28;20032;-47
2022/03/31 02:49:22;;;;;;;1.05;0.70;;;;;;;;;;5035236;28;20024;-52
2022/03/31 02:51:48;;;;;;;1.70;0.77;;;;;;;;;;5050864;28;20029;-50
2022/03/31 02:56:59;;;;;;;2.05;0.93;;;;;;;;;;5048579;28;20035;-49
2022/03/31 02:59:25;;;;;;;1.70;0.80;;;;;;;;;;5050372;28;20790;-49
2022/03/31 03:01:51;;;;;;;2.22;0.70;;;;;;;;;;5046042;28;20048;-51
2022/03/31 03:04:18;;;;;;;2.30;0.80;;;;;;;;;;5049591;28;20040;-51
2022/03/31 03:06:44;;;;;;;1.00;0.60;;;;;;;;;;5049916;28;20597;-53
2022/03/31 03:09:10;;;;;;;2.47;0.82;;;;;;;;;;5050812;28;20021;-49
2022/03/31 03:11:36;;;;;;;1.63;0.70;;;;;;;;;;5050344;28;20478;-51
2022/03/31 03:14:03;;;;;;;1.73;0.60;;;;;;;;;;5050769;28;20040;-52
2022/03/31 03:16:29;;;;;;;1.67;0.60;;;;;;;;;;5049702;28;20582;-52
2022/03/31 03:18:55;;;;;;;1.17;0.60;;;;;;;;;;5048705;28;20112;-52
2022/03/31 03:21:21;;;;;;;1.90;0.80;;;;;;;;;;5050534;28;20025;-53
2022/03/31 03:23:48;;;;;;;1.13;0.60;;;;;;;;;;5050388;28;20040;-52
2022/03/31 03:26:14;;;;;;;1.05;0.60;;;;;;;;;;5049503;28;20024;-50
2022/03/31 03:28:41;;;;;;;1.60;0.63;;;;;;;;;;5049941;28;20049;-53
2022/03/31 03:31:08;;;;;;;0.90;0.60;;;;;;;;;;5049927;28;20033;-53
2022/03/31 03:33:34;;;;;;;2.38;0.90;;;;;;;;;;5042917;28;20527;-53
2022/03/31 03:36:00;;;;;;;3.33;0.80;;;;;;;;;;5050079;28;20158;-51
2022/03/31 03:38:27;;;;;;;2.10;0.65;;;;;;;;;;5049677;28;20032;-51
2022/03/31 03:40:53;;;;;;;2.13;0.80;;;;;;;;;;5049262;28;20025;-52
2022/03/31 03:43:19;;;;;;;1.40;0.68;;;;;;;;;;5049128;28;20060;-51
2022/03/31 03:45:45;;;;;;;1.38;0.50;;;;;;;;;;5049600;28;20091;-53
2022/03/31 03:48:11;;;;;;;2.30;0.80;;;;;;;;;;5044861;28;20033;-49
2022/03/31 03:50:38;;;;;;;0.85;0.60;;;;;;;;;;5049176;28;20075;-53
2022/03/31 03:53:05;;;;;;;1.35;0.55;;;;;;;;;;5047622;28;20052;-50
2022/03/31 03:55:31;;;;;;;1.73;0.68;;;;;;;;;;5049464;28;20044;-51
2022/03/31 03:57:57;;;;;;;0.95;0.60;;;;;;;;;;5050046;28;20032;-52
2022/03/31 04:00:24;;;;;;;1.17;0.60;;;;;;;;;;5048650;28;20056;-50
2022/03/31 04:02:50;;;;;;;1.17;0.57;;;;;;;;;;5049361;28;20025;-54
2022/03/31 04:05:17;;;;;;;1.75;0.70;;;;;;;;;;5049016;28;20083;-52
2022/03/31 04:07:43;;;;;;;1.88;0.80;;;;;;;;;;5048318;28;20026;-53
2022/03/31 04:10:10;;;;;;;3.35;0.68;;;;;;;;;;5049380;28;20036;-52
2022/03/31 04:12:37;;;;;;;1.30;0.50;;;;;;;;;;5049129;28;20788;-51
2022/03/31 04:15:06;;;;;;;0.90;0.50;;;;;;;;;;5047751;28;20574;-50
2022/03/31 04:17:33;;;;;;;2.03;0.60;;;;;;;;;;5048731;28;20039;-50
2022/03/31 04:19:59;;;;;;;1.40;0.50;;;;;;;;;;5048936;28;20017;-51
2022/03/31 04:22:27;;;;;;;1.30;0.60;;;;;;;;;;5048771;28;20056;-53
2022/03/31 04:24:54;;;;;;;0.50;0.40;;;;;;;;;;5048524;28;20059;-48
2022/03/31 04:27:20;;;;;;;1.25;0.43;;;;;;;;;;5048167;28;20029;-49
2022/03/31 04:29:46;;;;;;;10.32;0.90;;;;;;;;;;5048586;28;20116;-49
2022/03/31 04:32:12;;;;;;;6.97;0.90;;;;;;;;;;5047392;28;20025;-48
2022/03/31 04:34:38;;;;;;;8.07;0.90;;;;;;;;;;5048140;28;20028;-52
2022/03/31 04:37:06;;;;;;;7.60;0.98;;;;;;;;;;5048969;28;20033;-49
2022/03/31 04:39:32;;;;;;;5.82;0.80;;;;;;;;;;5048130;28;20526;-50
2022/03/31 04:41:58;;;;;;;3.60;0.80;;;;;;;;;;5048526;28;20025;-49
2022/03/31 04:44:24;;;;;;;5.38;0.50;;;;;;;;;;5048196;28;20033;-50
2022/03/31 04:46:50;;;;;;;3.45;1.35;;;;;;;;;;5041036;28;20083;-53
2022/03/31 04:49:16;;;;;;;3.33;0.80;;;;;;;;;;5040513;28;20494;-50
2022/03/31 04:51:43;;;;;;;2.80;0.60;;;;;;;;;;5036733;28;20022;-52
2022/03/31 04:54:09;;;;;;;1.98;0.65;;;;;;;;;;5040661;28;20028;-49
2022/03/31 04:56:35;;;;;;;2.72;0.70;;;;;;;;;;5038922;28;20534;-50
2022/03/31 04:59:01;;;;;;;3.00;0.68;;;;;;;;;;5039383;28;20035;-51
2022/03/31 05:01:27;;;;;;;3.70;0.70;;;;;;;;;;5037339;28;20053;-50
2022/03/31 05:03:56;;;;;;;3.85;0.45;;;;;;;;;;5039028;28;20123;-48
2022/03/31 05:06:23;;;;;;;1.90;0.50;;;;;;;;;;5038097;28;20032;-52
2022/03/31 05:08:49;;;;;;;3.33;0.88;;;;;;;;;;5037300;28;20053;-51
2022/03/31 05:11:17;;;;;;;2.10;0.90;;;;;;;;;;5040402;28;20064;-53
2022/03/31 05:13:43;;;;;;;2.70;0.80;;;;;;;;;;5039538;28;20025;-52
2022/03/31 05:16:09;;;;;;;1.23;0.70;;;;;;;;;;5038848;28;20116;-51
2022/03/31 05:18:36;;;;;;;1.63;0.75;;;;;;;;;;5046370;28;20139;-52
2022/03/31 05:21:02;;;;;;;3.17;1.15;;;;;;;;;;5042658;28;20489;-52
2022/03/31 05:23:28;;;;;;;2.92;0.95;;;;;;;;;;5048274;28;20045;-54
2022/03/31 05:25:54;;;;;;;8.05;1.02;;;;;;;;;;5047828;28;20108;-53
2022/03/31 05:28:21;;;;;;;5.72;0.95;;;;;;;;;;5047148;28;20053;-51
2022/03/31 05:30:47;;;;;;;5.05;0.85;;;;;;;;;;5048020;28;20068;-53
2022/03/31 05:33:13;;;;;;;17.83;1.40;;;;;;;;;;5046707;28;20036;-54
2022/03/31 05:35:39;;;;;;;8.63;1.52;;;;;;;;;;5047654;28;20123;-49
2022/03/31 05:38:06;;;;;;;11.90;1.65;;;;;;;;;;5047937;28;20100;-48
2022/03/31 05:40:33;;;;;;;15.48;1.70;;;;;;;;;;5047774;28;20036;-51
2022/03/31 05:42:59;;;;;;;20.58;1.95;;;;;;;;;;5048056;28;20099;-50
2022/03/31 05:45:25;;;;;;;23.50;1.42;;;;;;;;;;5045080;28;20029;-50
2022/03/31 05:47:52;;;;;;;20.65;1.77;;;;;;;;;;5038531;28;20033;-51
2022/03/31 05:50:18;;;;;;;20.60;1.30;;;;;;;;;;5035748;28;20360;-49
2022/03/31 05:52:44;;;;;;;12.07;1.27;;;;;;;;;;5040590;28;20081;-49
2022/03/31 05:55:11;;;;;;;10.70;1.30;;;;;;;;;;5039365;28;20042;-51
2022/03/31 05:57:38;;;;;;;18.48;2.03;;;;;;;;;;5041311;28;20021;-48
2022/03/31 06:00:05;;;;;;;16.48;1.17;;;;;;;;;;5036999;28;20029;-52
2022/03/31 06:02:31;;;;;;;20.08;1.60;;;;;;;;;;5038732;28;20037;-47
2022/03/31 06:04:57;;;;;;;14.38;1.50;;;;;;;;;;5038008;28;20029;-51
2022/03/31 06:07:23;;;;;;;10.00;1.30;;;;;;;;;;5040478;28;20723;-50
2022/03/31 06:09:50;;;;;;;19.20;1.35;;;;;;;;;;5039322;28;20698;-48
2022/03/31 06:12:16;;;;;;;10.35;1.58;;;;;;;;;;5040849;28;20033;-52
2022/03/31 06:14:42;;;;;;;14.18;1.23;;;;;;;;;;5040315;28;20104;-51
2022/03/31 06:17:08;;;;;;;10.23;1.00;;;;;;;;;;5037354;28;20811;-52
2022/03/31 06:19:35;;;;;;;14.82;1.45;;;;;;;;;;5037719;28;20440;-48
2022/03/31 06:22:02;;;;;;;10.63;1.10;;;;;;;;;;5041482;28;20021;-50
2022/03/31 06:24:28;;;;;;;9.55;1.33;;;;;;;;;;5047031;28;20074;-52
2022/03/31 06:26:57;;;;;;;19.85;2.05;;;;;;;;;;5036261;28;20104;-52
2022/03/31 06:29:23;;;;;;;21.30;1.63;;;;;;;;;;5029756;28;20060;-51
2022/03/31 06:31:50;;;;;;;14.77;1.92;;;;;;;;;;5033979;28;20033;-50
2022/03/31 06:34:16;;;;;;;16.58;1.90;;;;;;;;;;5045503;28;20104;-51
2022/03/31 06:36:42;;;;;;;20.90;1.75;;;;;;;;;;5039937;28;20203;-51
2022/03/31 06:39:08;;;;;;;14.95;1.23;;;;;;;;;;5039280;28;20056;-50
2022/03/31 06:41:34;;;;;;;7.05;1.05;;;;;;;;;;5037888;28;20036;-52
2022/03/31 06:44:00;;;;;;;23.98;2.25;;;;;;;;;;5041644;28;20060;-52
2022/03/31 06:46:26;;;;;;;11.18;2.25;;;;;;;;;;5039344;28;20045;-50
2022/03/31 06:48:53;;;;;;;22.65;1.33;;;;;;;;;;5043419;28;20025;-49
2022/03/31 06:51:19;;;;;;;17.27;1.75;;;;;;;;;;5044010;28;20036;-51
2022/03/31 06:53:45;;;;;;;9.02;1.38;;;;;;;;;;5050253;28;20017;-54
2022/03/31 06:56:18;;;;;;;27.73;1.80;;;;;;;;;;5050452;28;20029;-54
2022/03/31 06:58:44;;;;;;;17.35;2.10;;;;;;;;;;5050512;28;20082;-53
2022/03/31 07:01:10;;;;;;;21.52;2.28;;;;;;;;;;5049822;28;20034;-48
2022/03/31 07:03:37;;;;;;;22.70;1.42;;;;;;;;;;5050239;28;20029;-53
2022/03/31 07:06:03;;;;;;;17.88;1.45;;;;;;;;;;5050751;28;20056;-54
2022/03/31 07:08:30;;;;;;;19.45;2.45;;;;;;;;;;5047837;28;20033;-49
2022/03/31 07:10:56;;;;;;;14.55;1.55;;;;;;;;;;5050618;28;20036;-54
2022/03/31 07:13:22;;;;;;;22.30;1.50;;;;;;;;;;5050105;28;20056;-52
2022/03/31 07:15:48;;;;;;;18.40;1.88;;;;;;;;;;5050391;28;20025;-50
2022/03/31 07:18:14;;;;;;;11.38;1.10;;;;;;;;;;5034888;28;20031;-51
2022/03/31 07:20:40;;;;;;;15.18;2.00;;;;;;;;;;5050136;28;20028;-51
2022/03/31 07:23:07;;;;;;;13.35;1.33;;;;;;;;;;5050339;28;20033;-48
2022/03/31 07:25:33;;;;;;;14.30;1.65;;;;;;;;;;5049840;28;20082;-53
2022/03/31 07:27:59;;;;;;;24.35;1.85;;;;;;;;;;5046454;28;20049;-53
2022/03/31 07:30:26;;;;;;;23.95;1.98;;;;;;;;;;5049023;28;20158;-53
2022/03/31 07:32:52;;;;;;;15.30;1.50;;;;;;;;;;5050064;28;20109;-49
2022/03/31 07:35:19;;;;;;;18.13;1.50;;;;;;;;;;5048539;28;20033;-54
2022/03/31 07:37:45;;;;;;;13.73;2.00;;;;;;;;;;5049137;28;20051;-54
2022/03/31 07:40:11;;;;;;;11.65;1.50;;;;;;;;;;5048790;28;20032;-53
2022/03/31 07:42:37;;;;;;;17.15;1.40;;;;;;;;;;5045205;28;20033;-54
2022/03/31 07:45:04;;;;;;;11.32;1.15;;;;;;;;;;5042376;28;20044;-51
2022/03/31 07:47:30;;;;;;;10.48;1.00;;;;;;;;;;5049283;28;20531;-53
2022/03/31 07:49:56;;;;;;;13.18;1.33;;;;;;;;;;5048866;28;20031;-52
2022/03/31 07:52:22;;;;;;;10.68;1.52;;;;;;;;;;5039672;28;20394;-50
2022/03/31 07:54:48;;;;;;;8.07;1.00;;;;;;;;;;5038928;28;20123;-53
2022/03/31 07:57:14;;;;;;;16.45;2.05;;;;;;;;;;5039679;28;20017;-55
2022/03/31 07:59:40;;;;;;;11.55;1.42;;;;;;;;;;5036989;28;20411;-52
2022/03/31 08:02:07;;;;;;;7.80;1.45;;;;;;;;;;5043676;28;20033;-54
2022/03/31 08:04:33;;;;;;;10.32;0.98;;;;;;;;;;5040937;28;20546;-54
2022/03/31 08:06:59;;;;;;;12.02;0.90;;;;;;;;;;5049375;28;20079;-52
2022/03/31 08:09:25;;;;;;;11.82;1.13;;;;;;;;;;5045777;28;20025;-54
2022/03/31 08:11:51;;;;;;;12.65;1.30;;;;;;;;;;5048621;28;20128;-52
2022/03/31 08:14:21;;;;;;;10.65;0.90;;;;;;;;;;5049139;28;20115;-53
2022/03/31 08:16:50;;;;;;;15.02;1.35;;;;;;;;;;5049263;28;20037;-54
2022/03/31 08:19:17;;;;;;;12.10;0.90;;;;;;;;;;5047707;28;20025;-53
2022/03/31 08:21:47;;;;;;;7.65;1.30;;;;;;;;;;5049215;28;20116;-54
2022/03/31 08:24:18;;;;;;;9.30;0.90;;;;;;;;;;5047270;28;20021;-51
2022/03/31 08:26:46;;;;;;;7.60;1.17;;;;;;;;;;5040615;28;20493;-53
2022/03/31 08:29:12;;;;;;;8.85;1.17;;;;;;;;;;5042524;28;20609;-48
2022/03/31 08:31:38;;;;;;;8.65;1.80;;;;;;;;;;5039936;28;20119;-53
2022/03/31 08:34:05;;;;;;;9.23;0.90;;;;;;;;;;5047164;28;20021;-52
2022/03/31 08:36:31;;;;;;;12.57;1.20;;;;;;;;;;5046472;28;20024;-53
2022/03/31 08:38:58;;;;;;;6.30;1.17;;;;;;;;;;5047742;28;20036;-52
2022/03/31 08:41:26;;;;;;;4.85;0.80;;;;;;;;;;5047120;28;20025;-50
2022/03/31 08:43:52;;;;;;;4.05;0.50;;;;;;;;;;5032642;28;20029;-55
2022/03/31 08:46:20;;;;;;;11.68;1.15;;;;;;;;;;5031391;28;20063;-51
2022/03/31 08:48:45;;;;;;;8.68;0.90;;;;;;;;;;5048669;28;20087;-52
2022/03/31 08:51:12;;;;;;;3.85;0.70;;;;;;;;;;5048026;28;20464;-55
2022/03/31 08:53:38;;;;;;;4.45;1.25;;;;;;;;;;5048192;28;20040;-52
2022/03/31 08:56:05;;;;;;;9.98;1.10;;;;;;;;;;5048347;28;20399;-52
2022/03/31 08:58:31;;;;;;;13.13;1.15;;;;;;;;;;5047231;28;20112;-51
2022/03/31 09:00:57;;;;;;;5.50;0.82;;;;;;;;;;5048473;28;20112;-49
2022/03/31 09:03:34;;;;;;;4.57;0.73;;;;;;;;;;5047909;28;20056;-53
2022/03/31 09:06:01;;;;;;;5.28;0.60;;;;;;;;;;5028516;28;20063;-53
2022/03/31 09:08:27;;;;;;;2.85;0.60;;;;;;;;;;5042728;28;20028;-53
2022/03/31 09:10:58;;;;;;;5.85;0.80;;;;;;;;;;5034656;28;20487;-51
2022/03/31 09:13:28;;;;;;;2.35;0.70;;;;;;;;;;5039987;28;20044;-53
2022/03/31 09:16:02;;;;;;;4.07;0.63;;;;;;;;;;5039276;28;20048;-52
2022/03/31 09:18:29;;;;;;;3.95;0.60;;;;;;;;;;5045381;28;20059;-50
2022/03/31 09:20:57;;;;;;;5.72;0.70;;;;;;;;;;5048186;28;20108;-53
2022/03/31 09:23:52;;;;;;;4.82;0.50;;;;;;;;;;5043176;28;20484;-54
2022/03/31 09:26:18;;;;;;;4.57;1.33;;;;;;;;;;5044955;28;20045;-49
2022/03/31 09:28:45;;;;;;;4.07;0.68;;;;;;;;;;5047992;28;20452;-47
2022/03/31 09:31:12;;;;;;;2.38;1.02;;;;;;;;;;5047320;28;20075;-52
2022/03/31 09:33:48;;;;;;;2.20;0.50;;;;;;;;;;5047978;28;20033;-51
2022/03/31 09:36:23;;;;;;;2.50;0.40;;;;;;;;;;5047653;28;20025;-53
2022/03/31 09:38:55;;;;;;;5.32;0.73;;;;;;;;;;5046753;28;20609;-50
2022/03/31 09:41:23;;;;;;;2.97;0.70;;;;;;;;;;5047460;28;20119;-50
2022/03/31 09:43:50;;;;;;;6.20;0.57;;;;;;;;;;5047233;28;20041;-51
2022/03/31 09:46:24;;;;;;;4.00;0.55;;;;;;;;;;5047764;28;20479;-54
2022/03/31 09:48:51;;;;;;;5.05;0.90;;;;;;;;;;5035465;28;20029;-54
2022/03/31 09:51:19;;;;;;;3.55;0.40;;;;;;;;;;5047043;28;20080;-54
2022/03/31 09:53:47;;;;;;;3.28;1.48;;;;;;;;;;5032260;28;20120;-50
2022/03/31 09:56:14;;;;;;;3.58;0.60;;;;;;;;;;5047280;28;20112;-53
2022/03/31 09:58:42;;;;;;;1.38;0.57;;;;;;;;;;5047339;28;20033;-51
2022/03/31 10:01:08;;;;;;;2.60;0.60;;;;;;;;;;5043108;28;20035;-54
2022/03/31 10:03:37;;;;;;;4.97;0.60;;;;;;;;;;5027694;28;20026;-54
2022/03/31 10:06:03;;;;;;;3.53;0.60;;;;;;;;;;5048964;28;20146;-54
2022/03/31 10:08:32;;;;;;;3.80;0.65;;;;;;;;;;5051896;28;20044;-53
2022/03/31 10:10:59;;;;;;;3.42;0.65;;;;;;;;;;5051318;28;20112;-55
2022/03/31 10:13:27;;;;;;;2.40;0.80;;;;;;;;;;5051885;28;20091;-55
2022/03/31 10:15:59;;;;;;;3.40;0.50;;;;;;;;;;5047219;28;20120;-53
2022/03/31 10:18:25;;;;;;;6.03;0.70;;;;;;;;;;5031252;28;20032;-53
2022/03/31 10:21:00;;;;;;;3.55;1.20;;;;;;;;;;5046567;28;20538;-52
2022/03/31 10:26:25;;;;;;;20.15;4.28;;;;;;;;;;5051268;28;20036;-50
2022/03/31 10:28:59;;;;;;;27.77;5.03;;;;;;;;;;5031444;28;20053;-52
2022/03/31 10:31:35;;;;;;;29.95;4.93;;;;;;;;;;5046309;28;20036;-52
2022/03/31 10:34:01;;;;;;;18.33;4.03;;;;;;;;;;5036144;28;20045;-50
2022/03/31 10:36:35;;;;;;;30.73;5.07;;;;;;;;;;5038639;28;20029;-52
2022/03/31 10:39:03;;;;;;;25.20;5.20;;;;;;;;;;5050565;28;20025;-54
2022/03/31 10:41:31;;;;;;;23.25;4.07;;;;;;;;;;5044645;28;20022;-51
2022/03/31 10:43:58;;;;;;;21.67;4.05;;;;;;;;;;5039951;28;20128;-54
2022/03/31 10:46:25;;;;;;;22.63;4.63;;;;;;;;;;5043157;28;20789;-54
2022/03/31 10:48:55;;;;;;;19.40;3.80;;;;;;;;;;5047473;28;20446;-53
2022/03/31 10:51:35;;;;;;;19.55;3.47;;;;;;;;;;5041813;28;20025;-54
2022/03/31 10:54:01;;;;;;;23.23;3.90;;;;;;;;;;5048827;28;20380;-53
2022/03/31 10:56:29;;;;;;;18.90;3.97;;;;;;;;;;5045614;28;20025;-52
2022/03/31 10:58:57;;;;;;;13.73;3.88;;;;;;;;;;5050707;28;20146;-47
2022/03/31 11:01:24;;;;;;;14.98;3.88;;;;;;;;;;5043633;28;20059;-54
2022/03/31 11:03:51;;;;;;;19.92;4.20;;;;;;;;;;5046044;28;20237;-53
2022/03/31 11:06:20;;;;;;;19.63;3.95;;;;;;;;;;5050044;28;20028;-51
2022/03/31 11:08:47;;;;;;;15.70;3.65;;;;;;;;;;5050636;28;20025;-51
2022/03/31 11:11:24;;;;;;;10.68;3.05;;;;;;;;;;5050721;28;20032;-50
2022/03/31 11:13:51;;;;;;;18.23;4.22;;;;;;;;;;5049758;28;20035;-54
2022/03/31 11:16:17;;;;;;;14.88;4.03;;;;;;;;;;5050253;28;20025;-53
2022/03/31 11:18:53;;;;;;;17.20;4.32;;;;;;;;;;5039288;28;20024;-54
2022/03/31 11:21:19;;;;;;;15.40;2.55;;;;;;;;;;5050058;28;20098;-51
2022/03/31 11:23:47;;;;;;;19.33;4.00;;;;;;;;;;5049626;28;20025;-49
2022/03/31 11:26:15;;;;;;;13.27;3.28;;;;;;;;;;5050032;28;20106;-53
2022/03/31 11:28:41;;;;;;;15.85;3.08;;;;;;;;;;5049070;28;20132;-55
2022/03/31 11:31:14;;;;;;;11.75;3.08;;;;;;;;;;5050685;28;20025;-53
2022/03/31 11:33:41;;;;;;;16.77;2.97;;;;;;;;;;5047782;28;20036;-54
2022/03/31 11:36:07;;;;;;;13.35;2.42;;;;;;;;;;5050451;28;20079;-53
2022/03/31 11:38:33;;;;;;;14.13;2.90;;;;;;;;;;5049185;28;20139;-51
2022/03/31 11:40:59;;;;;;;9.70;2.45;;;;;;;;;;5037567;28;20125;-53
2022/03/31 11:43:25;;;;;;;16.13;3.33;;;;;;;;;;5042798;28;20462;-52
2022/03/31 11:45:53;;;;;;;9.38;2.45;;;;;;;;;;5045744;28;20100;-53
2022/03/31 11:48:19;;;;;;;12.77;2.97;;;;;;;;;;5046502;28;20025;-53
2022/03/31 11:50:56;;;;;;;17.20;3.47;;;;;;;;;;5041492;28;20424;-52
2022/03/31 11:53:27;;;;;;;13.43;2.58;;;;;;;;;;5041942;28;20386;-54
2022/03/31 11:56:00;;;;;;;10.60;2.75;;;;;;;;;;5041583;28;20013;-53
2022/03/31 11:58:27;;;;;;;9.20;2.92;;;;;;;;;;5041917;28;20029;-53
2022/03/31 12:00:54;;;;;;;9.07;2.47;;;;;;;;;;5040083;28;20107;-53
2022/03/31 12:03:20;;;;;;;10.98;2.55;;;;;;;;;;5042513;28;20021;-52
2022/03/31 12:05:59;;;;;;;17.60;3.22;;;;;;;;;;5042681;28;20116;-50
2022/03/31 12:08:28;;;;;;;9.48;2.13;;;;;;;;;;5036739;28;20024;-53
2022/03/31 12:10:55;;;;;;;11.88;2.40;;;;;;;;;;5038650;28;20108;-50
2022/03/31 12:13:21;;;;;;;10.27;2.42;;;;;;;;;;5039215;28;20048;-52
2022/03/31 12:15:48;;;;;;;16.00;2.60;;;;;;;;;;5049074;28;20116;-53
2022/03/31 12:18:16;;;;;;;13.38;2.63;;;;;;;;;;5039738;28;20043;-51
2022/03/31 12:20:43;;;;;;;14.85;2.63;;;;;;;;;;5039021;28;20060;-52
2022/03/31 12:23:18;;;;;;;9.38;1.30;;;;;;;;;;5041520;28;20017;-53
2022/03/31 12:25:44;;;;;;;17.92;2.90;;;;;;;;;;5035805;28;20184;-53
2022/03/31 12:28:10;;;;;;;14.77;2.80;;;;;;;;;;5030470;28;20089;-51
2022/03/31 12:30:48;;;;;;;11.55;2.15;;;;;;;;;;5045196;28;20099;-53
2022/03/31 12:33:18;;;;;;;13.00;2.60;;;;;;;;;;5046835;28;20025;-52
2022/03/31 12:35:57;;;;;;;16.77;2.53;;;;;;;;;;5046627;28;20035;-54
2022/03/31 12:38:42;;;;;;;9.13;1.95;;;;;;;;;;5046773;28;20052;-52
2022/03/31 12:41:33;;;;;;;9.85;2.63;;;;;;;;;;5044142;28;20505;-52
2022/03/31 12:44:01;;;;;;;9.10;1.83;;;;;;;;;;5046525;28;20036;-54
2022/03/31 12:46:30;;;;;;;8.88;2.17;;;;;;;;;;5046561;28;20028;-49
2022/03/31 12:49:06;;;;;;;13.90;2.13;;;;;;;;;;5046993;28;20391;-52
2022/03/31 12:51:43;;;;;;;14.90;2.08;;;;;;;;;;5046190;28;20134;-53
2022/03/31 12:54:38;;;;;;;10.57;1.77;;;;;;;;;;5046061;28;20028;-53
2022/03/31 12:57:07;;;;;;;17.02;2.47;;;;;;;;;;5041490;28;20048;-52
2022/03/31 12:59:35;;;;;;;12.15;1.98;;;;;;;;;;5046964;28;20061;-52
2022/03/31 13:02:06;;;;;;;11.80;2.20;;;;;;;;;;5047018;28;20037;-52
2022/03/31 13:04:33;;;;;;;10.80;2.38;;;;;;;;;;5047790;28;20052;-51
2022/03/31 13:06:59;;;;;;;12.18;1.60;;;;;;;;;;5047525;28;20068;-53
2022/03/31 13:09:26;;;;;;;10.57;1.85;;;;;;;;;;5047550;28;20476;-54
2022/03/31 13:11:56;;;;;;;9.32;2.53;;;;;;;;;;5047734;28;20491;-55
2022/03/31 13:14:22;;;;;;;13.00;2.28;;;;;;;;;;5048005;28;20048;-55
2022/03/31 13:16:48;;;;;;;13.50;2.33;;;;;;;;;;5047367;28;20028;-53
2022/03/31 13:19:14;;;;;;;10.27;1.80;;;;;;;;;;5047891;28;20553;-52
2022/03/31 13:21:40;;;;;;;7.78;1.95;;;;;;;;;;5047701;28;20028;-50
2022/03/31 13:24:07;;;;;;;9.18;2.33;;;;;;;;;;5047757;28;20098;-54
2022/03/31 13:26:36;;;;;;;8.55;1.73;;;;;;;;;;5034704;28;20102;-53
2022/03/31 13:29:03;;;;;;;8.38;1.90;;;;;;;;;;5032567;28;20083;-53
2022/03/31 13:31:29;;;;;;;11.30;1.60;;;;;;;;;;5030751;28;20024;-54
2022/03/31 13:33:55;;;;;;;10.98;1.75;;;;;;;;;;5028557;28;20049;-54
2022/03/31 13:36:21;;;;;;;6.28;1.50;;;;;;;;;;5030615;28;20017;-51
2022/03/31 13:38:47;;;;;;;7.20;1.52;;;;;;;;;;5028861;28;20088;-53
2022/03/31 13:41:13;;;;;;;5.88;1.52;;;;;;;;;;5032265;28;20025;-52
2022/03/31 13:43:39;;;;;;;13.18;2.20;;;;;;;;;;5033860;28;20041;-53
2022/03/31 13:46:05;;;;;;;9.98;1.67;;;;;;;;;;5032885;28;20400;-52
2022/03/31 13:48:31;;;;;;;9.88;1.58;;;;;;;;;;5033534;28;20041;-54
2022/03/31 13:50:57;;;;;;;6.15;1.20;;;;;;;;;;5032887;28;20039;-55
2022/03/31 13:56:08;;;;;;;9.43;1.52;;;;;;;;;;5035717;28;20090;-52
2022/03/31 14:01:19;;;;;;;5.88;1.45;;;;;;;;;;5033791;28;20083;-52
2022/03/31 14:03:46;;;;;;;4.13;1.13;;;;;;;;;;5032918;28;20052;-51
2022/03/31 14:06:16;;;;;;;6.97;1.75;;;;;;;;;;5035332;28;20121;-54
2022/03/31 14:08:42;;;;;;;6.63;1.10;;;;;;;;;;5033729;28;20372;-49
2022/03/31 14:11:09;;;;;;;6.38;1.60;;;;;;;;;;5031829;28;20035;-51
2022/03/31 14:13:35;;;;;;;8.77;2.30;;;;;;;;;;5033374;28;20446;-52
2022/03/31 14:16:03;;;;;;;14.10;1.67;;;;;;;;;;5033881;28;20028;-59
2022/03/31 14:18:33;;;;;;;22.55;1.85;;;;;;;;;;5035766;28;20387;-51
2022/03/31 14:21:00;;;;;;;12.93;2.20;;;;;;;;;;5030508;28;20029;-52
2022/03/31 14:23:28;;;;;;;13.48;2.05;;;;;;;;;;5036431;28;20112;-49
2022/03/31 14:25:58;;;;;;;9.77;1.58;;;;;;;;;;5036078;28;20049;-53
2022/03/31 14:28:25;;;;;;;8.80;1.83;;;;;;;;;;5035345;28;20171;-49
2022/03/31 14:30:52;;;;;;;13.57;4.35;;;;;;;;;;5037218;28;20078;-48
2022/03/31 14:33:18;;;;;;;13.00;1.75;;;;;;;;;;5032165;28;20676;-54
2022/03/31 14:35:45;;;;;;;11.02;1.73;;;;;;;;;;5033592;28;20036;-54
2022/03/31 14:38:14;;;;;;;9.93;1.77;;;;;;;;;;5032327;28;20037;-53
2022/03/31 14:40:40;;;;;;;10.00;1.80;;;;;;;;;;5036057;28;20029;-49
2022/03/31 14:43:06;;;;;;;15.85;3.00;;;;;;;;;;5034906;28;20037;-51
2022/03/31 14:45:32;;;;;;;8.60;1.58;;;;;;;;;;5034367;28;20124;-51
2022/03/31 14:47:59;;;;;;;10.40;1.70;;;;;;;;;;5034206;28;20033;-52
2022/03/31 14:50:26;;;;;;;12.13;1.60;;;;;;;;;;5037267;28;20044;-51
2022/03/31 14:52:52;;;;;;;18.40;2.17;;;;;;;;;;5034155;28;20602;-54
2022/03/31 14:55:19;;;;;;;10.23;1.95;;;;;;;;;;5033882;28;20034;-53
2022/03/31 14:57:46;;;;;;;15.35;1.92;;;;;;;;;;5029991;28;20057;-50
2022/03/31 15:00:13;;;;;;;12.82;1.50;;;;;;;;;;5035308;28;20030;-52
2022/03/31 15:02:39;;;;;;;12.48;2.05;;;;;;;;;;5033282;28;20029;-54